PWSweather.com
Personal Weather Stations
Station Observations
ANTHEMNP
Anthem North Parkside, Anthem, AZ 85086

Anthem North ParksideAnthem, AZ 85086

Lat: 33.876464, Lon: -112.13861199999997

Elevation: 1930

Station Type: Davis Vantage Vue with Pro 2 console

http://www.azjerry.com/ANPW/wxindex.php

Latest ConditionsUpdated 8:20:38 PM MST Tuesday, Mar 26, 2019
Currently Today's Max Today's Min Today's Average
Temperature 71.0°F21.7°C 84.3°F29.1°C 58.3°F14.6°C 71.3°F21.8°C
Dew Point 32.4°F0.2°C 35.0°F1.7°C 25.9°F-3.4°C 30.1°F-1.1°C
Winds Calm Calm 10.4 mph -16.7 kmh - - 3.2 mph 5.1 kmh
Wind Gusts -- 12.7 mph20.4 kmh - -
Humidity 24% 34% 13% 23%
Pressure 29.96 in1014.6 mb 30.05 in1017.6 mb 29.94 in1013.9 mb -
Hour Temp Dew Point Humidity Winds Wind Gusts Pressure Precip Precip Rate Daily Precip Total
08:20 PM 71.0°F21.7°C 32.4°F0.2°C 24% Calm Calm -- 29.96 in1014.6 mb - 0.00 in0.0 mm 0.00 in0.0 mm
08:10 PM 71.9°F22.2°C 33.1°F0.6°C 24% Calm Calm -- 29.96 in1014.6 mb - 0.00 in0.0 mm 0.00 in0.0 mm
08:00 PM 72.7°F22.6°C 33.8°F1.0°C 24% Calm Calm -- 29.95 in1014.2 mb - 0.00 in0.0 mm 0.00 in0.0 mm
07:50 PM 73.4°F23.0°C 33.3°F0.7°C 23% Calm Calm -- 29.95 in1014.2 mb - 0.00 in0.0 mm 0.00 in0.0 mm
07:40 PM 74.6°F23.7°C 34.4°F1.3°C 23% Calm Calm -- 29.95 in1014.2 mb - 0.00 in0.0 mm 0.00 in0.0 mm
07:30 PM 75.8°F24.3°C 30.6°F-0.8°C 19% Calm Calm 1.2 mph1.9 kmh 29.95 in1014.2 mb - 0.00 in0.0 mm 0.00 in0.0 mm
07:20 PM 76.4°F24.7°C 29.8°F-1.2°C 18% 1.2 mph SSW1.9 kmh SSW 2.3 mph3.7 kmh 29.95 in1014.2 mb - 0.00 in0.0 mm 0.00 in0.0 mm
07:10 PM 76.9°F24.9°C 28.8°F-1.8°C 17% 2.3 mph SW3.7 kmh SW 3.5 mph5.6 kmh 29.95 in1014.2 mb - 0.00 in0.0 mm 0.00 in0.0 mm
07:00 PM 77.2°F25.1°C 29.0°F-1.7°C 17% 1.2 mph S1.9 kmh S 2.3 mph3.7 kmh 29.95 in1014.2 mb - 0.00 in0.0 mm 0.00 in0.0 mm
06:50 PM 77.7°F25.4°C 27.9°F-2.3°C 16% Calm Calm 2.3 mph3.7 kmh 29.95 in1014.2 mb - 0.00 in0.0 mm 0.00 in0.0 mm
06:40 PM 78.3°F25.7°C 26.9°F-2.8°C 15% Calm Calm 3.5 mph5.6 kmh 29.95 in1014.2 mb - 0.00 in0.0 mm 0.00 in0.0 mm
06:30 PM 78.7°F25.9°C 27.1°F-2.7°C 15% Calm Calm 2.3 mph3.7 kmh 29.95 in1014.2 mb - 0.00 in0.0 mm 0.00 in0.0 mm
06:20 PM 79.1°F26.2°C 27.5°F-2.5°C 15% Calm Calm 2.3 mph3.7 kmh 29.94 in1013.9 mb - 0.00 in0.0 mm 0.00 in0.0 mm
06:10 PM 79.9°F26.6°C 28.1°F-2.2°C 15% Calm Calm -- 29.94 in1013.9 mb - 0.00 in0.0 mm 0.00 in0.0 mm
06:00 PM 80.2°F26.8°C 29.9°F-1.2°C 16% 2.3 mph S3.7 kmh S 3.5 mph5.6 kmh 29.94 in1013.9 mb - 0.00 in0.0 mm 0.00 in0.0 mm
05:50 PM 80.7°F27.1°C 28.7°F-1.8°C 15% 2.3 mph S3.7 kmh S 3.5 mph5.6 kmh 29.94 in1013.9 mb - 0.00 in0.0 mm 0.00 in0.0 mm
05:30 PM 81.2°F27.3°C 29.1°F-1.6°C 15% 3.5 mph S5.6 kmh S 4.6 mph7.4 kmh 29.94 in1013.9 mb - 0.00 in0.0 mm 0.00 in0.0 mm
05:20 PM 81.5°F27.5°C 25.9°F-3.4°C 13% 4.6 mph SW7.4 kmh SW 5.8 mph9.3 kmh 29.94 in1013.9 mb - 0.00 in0.0 mm 0.00 in0.0 mm
05:10 PM 82.0°F27.8°C 29.7°F-1.3°C 15% 2.3 mph SW3.7 kmh SW 3.5 mph5.6 kmh 29.94 in1013.9 mb - 0.00 in0.0 mm 0.00 in0.0 mm
04:50 PM 81.8°F27.7°C 27.9°F-2.3°C 14% 3.5 mph SW5.6 kmh SW 3.5 mph5.6 kmh 29.94 in1013.9 mb - 0.00 in0.0 mm 0.00 in0.0 mm
04:40 PM 82.4°F28.0°C 26.6°F-3.0°C 13% 2.3 mph SSW3.7 kmh SSW 4.6 mph7.4 kmh 29.94 in1013.9 mb - 0.00 in0.0 mm 0.00 in0.0 mm
04:30 PM 82.9°F28.3°C 27.0°F-2.8°C 13% 2.3 mph S3.7 kmh S 5.8 mph9.3 kmh 29.94 in1013.9 mb - 0.00 in0.0 mm 0.00 in0.0 mm
04:20 PM 82.8°F28.2°C 28.7°F-1.8°C 14% 3.5 mph WSW5.6 kmh WSW 3.5 mph5.6 kmh 29.95 in1014.2 mb - 0.00 in0.0 mm 0.00 in0.0 mm
04:10 PM 82.9°F28.3°C 28.8°F-1.8°C 14% 3.5 mph SSW5.6 kmh SSW 4.6 mph7.4 kmh 29.95 in1014.2 mb - 0.00 in0.0 mm 0.00 in0.0 mm
03:50 PM 83.0°F28.3°C 27.1°F-2.7°C 13% 1.2 mph S1.9 kmh S 5.8 mph9.3 kmh 29.95 in1014.2 mb - 0.00 in0.0 mm 0.00 in0.0 mm
03:40 PM 82.9°F28.3°C 27.0°F-2.8°C 13% 1.2 mph SE1.9 kmh SE 2.3 mph3.7 kmh 29.95 in1014.2 mb - 0.00 in0.0 mm 0.00 in0.0 mm
03:30 PM 82.8°F28.2°C 26.9°F-2.8°C 13% 2.3 mph SE3.7 kmh SE 2.3 mph3.7 kmh 29.95 in1014.2 mb - 0.00 in0.0 mm 0.00 in0.0 mm
03:20 PM 83.0°F28.3°C 28.8°F-1.8°C 14% 2.3 mph SW3.7 kmh SW -- 29.95 in1014.2 mb - 0.00 in0.0 mm 0.00 in0.0 mm
03:10 PM 82.7°F28.2°C 28.6°F-1.9°C 14% 4.6 mph S7.4 kmh S 5.8 mph9.3 kmh 29.96 in1014.6 mb - 0.00 in0.0 mm 0.00 in0.0 mm
03:00 PM 83.4°F28.6°C 27.4°F-2.6°C 13% 1.2 mph S1.9 kmh S 3.5 mph5.6 kmh 29.96 in1014.6 mb - 0.00 in0.0 mm 0.00 in0.0 mm
02:50 PM 83.6°F28.7°C 27.5°F-2.5°C 13% 3.5 mph SSE5.6 kmh SSE 3.5 mph5.6 kmh 29.96 in1014.6 mb - 0.00 in0.0 mm 0.00 in0.0 mm
02:40 PM 83.8°F28.8°C 27.7°F-2.4°C 13% 2.3 mph S3.7 kmh S 3.5 mph5.6 kmh 29.97 in1014.9 mb - 0.00 in0.0 mm 0.00 in0.0 mm
02:30 PM 83.8°F28.8°C 27.7°F-2.4°C 13% 3.5 mph SSW5.6 kmh SSW 3.5 mph5.6 kmh 29.97 in1014.9 mb - 0.00 in0.0 mm 0.00 in0.0 mm
02:20 PM 84.0°F28.9°C 29.7°F-1.3°C 14% 1.2 mph WSW1.9 kmh WSW 3.5 mph5.6 kmh 29.97 in1014.9 mb - 0.00 in0.0 mm 0.00 in0.0 mm
02:10 PM 83.8°F28.8°C 29.5°F-1.4°C 14% 1.2 mph NW1.9 kmh NW 3.5 mph5.6 kmh 29.97 in1014.9 mb - 0.00 in0.0 mm 0.00 in0.0 mm
02:00 PM 83.5°F28.6°C 30.9°F-0.6°C 15% 1.2 mph W1.9 kmh W 3.5 mph5.6 kmh 29.98 in1015.2 mb - 0.00 in0.0 mm 0.00 in0.0 mm
01:50 PM 84.3°F29.1°C 29.9°F-1.2°C 14% 2.3 mph SW3.7 kmh SW 8.1 mph13.0 kmh 29.98 in1015.2 mb - 0.00 in0.0 mm 0.00 in0.0 mm
01:40 PM 83.5°F28.6°C 29.3°F-1.5°C 14% 2.3 mph WSW3.7 kmh WSW 2.3 mph3.7 kmh 29.99 in1015.6 mb - 0.00 in0.0 mm 0.00 in0.0 mm
01:30 PM 83.7°F28.7°C 29.4°F-1.4°C 14% 2.3 mph SW3.7 kmh SW 2.3 mph3.7 kmh 29.99 in1015.6 mb - 0.00 in0.0 mm 0.00 in0.0 mm
01:20 PM 83.1°F28.4°C 30.7°F-0.7°C 15% 1.2 mph WNW1.9 kmh WNW 1.2 mph1.9 kmh 29.99 in1015.6 mb - 0.00 in0.0 mm 0.00 in0.0 mm
01:10 PM 83.1°F28.4°C 27.2°F-2.7°C 13% Calm Calm 2.3 mph3.7 kmh 30.00 in1015.9 mb - 0.00 in0.0 mm 0.00 in0.0 mm
01:00 PM 83.3°F28.5°C 29.1°F-1.6°C 14% 1.2 mph SW1.9 kmh SW 3.5 mph5.6 kmh 30.00 in1015.9 mb - 0.00 in0.0 mm 0.00 in0.0 mm
12:50 PM 82.5°F28.1°C 28.5°F-1.9°C 14% 2.3 mph S3.7 kmh S 1.2 mph1.9 kmh 30.00 in1015.9 mb - 0.00 in0.0 mm 0.00 in0.0 mm
12:40 PM 82.3°F27.9°C 28.3°F-2.1°C 14% 2.3 mph W3.7 kmh W 2.3 mph3.7 kmh 30.00 in1015.9 mb - 0.00 in0.0 mm 0.00 in0.0 mm
12:30 PM 82.0°F27.8°C 29.7°F-1.3°C 15% 3.5 mph SSW5.6 kmh SSW 3.5 mph5.6 kmh 30.01 in1016.3 mb - 0.00 in0.0 mm 0.00 in0.0 mm
12:10 PM 80.9°F27.2°C 30.5°F-0.8°C 16% 2.3 mph WSW3.7 kmh WSW 3.5 mph5.6 kmh 30.01 in1016.3 mb - 0.00 in0.0 mm 0.00 in0.0 mm
12:00 PM 80.5°F26.9°C 28.5°F-1.9°C 15% Calm Calm 2.3 mph3.7 kmh 30.01 in1016.3 mb - 0.00 in0.0 mm 0.00 in0.0 mm
11:50 AM 80.0°F26.7°C 29.7°F-1.3°C 16% 1.2 mph SW1.9 kmh SW -- 30.02 in1016.6 mb - 0.00 in0.0 mm 0.00 in0.0 mm
11:40 AM 79.8°F26.6°C 31.1°F-0.5°C 17% 2.3 mph SW3.7 kmh SW 3.5 mph5.6 kmh 30.02 in1016.6 mb - 0.00 in0.0 mm 0.00 in0.0 mm
11:30 AM 79.1°F26.2°C 32.0°F0.0°C 18% 1.2 mph WSW1.9 kmh WSW 2.3 mph3.7 kmh 30.02 in1016.6 mb - 0.00 in0.0 mm 0.00 in0.0 mm
11:20 AM 78.6°F25.9°C 31.5°F-0.3°C 18% 2.3 mph WNW3.7 kmh WNW 5.8 mph9.3 kmh 30.02 in1016.6 mb - 0.00 in0.0 mm 0.00 in0.0 mm
11:10 AM 78.8°F26.0°C 31.7°F-0.2°C 18% 1.2 mph S1.9 kmh S 3.5 mph5.6 kmh 30.02 in1016.6 mb - 0.00 in0.0 mm 0.00 in0.0 mm
11:00 AM 78.7°F25.9°C 33.0°F0.6°C 19% 1.2 mph S1.9 kmh S -- 30.02 in1016.6 mb - 0.00 in0.0 mm 0.00 in0.0 mm
10:50 AM 78.3°F25.7°C 31.2°F-0.4°C 18% Calm Calm 1.2 mph1.9 kmh 30.02 in1016.6 mb - 0.00 in0.0 mm 0.00 in0.0 mm
10:40 AM 77.4°F25.2°C 30.6°F-0.8°C 18% 1.2 mph SSW1.9 kmh SSW 2.3 mph3.7 kmh 30.03 in1016.9 mb - 0.00 in0.0 mm 0.00 in0.0 mm
10:30 AM 77.2°F25.1°C 29.0°F-1.7°C 17% 1.2 mph S1.9 kmh S 2.3 mph3.7 kmh 30.03 in1016.9 mb - 0.00 in0.0 mm 0.00 in0.0 mm
10:20 AM 77.5°F25.3°C 31.9°F-0.1°C 19% 1.2 mph SSW1.9 kmh SSW 1.2 mph1.9 kmh 30.03 in1016.9 mb - 0.00 in0.0 mm 0.00 in0.0 mm
10:00 AM 76.1°F24.5°C 30.9°F-0.6°C 19% Calm Calm 1.2 mph1.9 kmh 30.03 in1016.9 mb - 0.00 in0.0 mm 0.00 in0.0 mm
09:50 AM 75.4°F24.1°C 31.5°F-0.3°C 20% 1.2 mph SSW1.9 kmh SSW 1.2 mph1.9 kmh 30.03 in1016.9 mb - 0.00 in0.0 mm 0.00 in0.0 mm
09:40 AM 74.0°F23.3°C 31.5°F-0.3°C 21% Calm Calm -- 30.03 in1016.9 mb - 0.00 in0.0 mm 0.00 in0.0 mm
09:30 AM 73.3°F22.9°C 33.2°F0.7°C 23% Calm Calm 1.2 mph1.9 kmh 30.03 in1016.9 mb - 0.00 in0.0 mm 0.00 in0.0 mm
09:20 AM 71.7°F22.1°C 35.0°F1.7°C 26% 1.2 mph N1.9 kmh N 1.2 mph1.9 kmh 30.03 in1016.9 mb - 0.00 in0.0 mm 0.00 in0.0 mm
09:10 AM 70.5°F21.4°C 34.9°F1.6°C 27% 1.2 mph N1.9 kmh N 2.3 mph3.7 kmh 30.03 in1016.9 mb - 0.00 in0.0 mm 0.00 in0.0 mm
09:00 AM 69.3°F20.7°C 34.8°F1.6°C 28% 1.2 mph N1.9 kmh N 2.3 mph3.7 kmh 30.03 in1016.9 mb - 0.00 in0.0 mm 0.00 in0.0 mm
08:50 AM 68.3°F20.2°C 33.9°F1.1°C 28% 3.5 mph NNE5.6 kmh NNE 3.5 mph5.6 kmh 30.02 in1016.6 mb - 0.00 in0.0 mm 0.00 in0.0 mm
08:40 AM 66.8°F19.3°C 34.3°F1.3°C 30% 4.6 mph NNE7.4 kmh NNE 5.8 mph9.3 kmh 30.02 in1016.6 mb - 0.00 in0.0 mm 0.00 in0.0 mm
08:30 AM 65.3°F18.5°C 33.1°F0.6°C 30% 4.6 mph N7.4 kmh N 5.8 mph9.3 kmh 30.03 in1016.9 mb - 0.00 in0.0 mm 0.00 in0.0 mm
08:20 AM 64.8°F18.2°C 33.4°F0.8°C 31% 5.8 mph N9.3 kmh N 5.8 mph9.3 kmh 30.03 in1016.9 mb - 0.00 in0.0 mm 0.00 in0.0 mm
08:10 AM 64.1°F17.8°C 33.6°F0.9°C 32% 5.8 mph N9.3 kmh N 6.9 mph11.1 kmh 30.02 in1016.6 mb - 0.00 in0.0 mm 0.00 in0.0 mm
08:00 AM 62.9°F17.2°C 32.5°F0.3°C 32% 4.6 mph NNE7.4 kmh NNE 5.8 mph9.3 kmh 30.02 in1016.6 mb - 0.00 in0.0 mm 0.00 in0.0 mm
07:50 AM 62.3°F16.8°C 32.8°F0.4°C 33% 3.5 mph NNE5.6 kmh NNE 4.6 mph7.4 kmh 30.02 in1016.6 mb - 0.00 in0.0 mm 0.00 in0.0 mm
07:40 AM 61.6°F16.4°C 32.2°F0.1°C 33% 4.6 mph NNE7.4 kmh NNE 4.6 mph7.4 kmh 30.01 in1016.3 mb - 0.00 in0.0 mm 0.00 in0.0 mm
07:30 AM 61.0°F16.1°C 31.6°F-0.2°C 33% 4.6 mph NNE7.4 kmh NNE 5.8 mph9.3 kmh 30.01 in1016.3 mb - 0.00 in0.0 mm 0.00 in0.0 mm
07:20 AM 60.5°F15.8°C 31.2°F-0.4°C 33% 3.5 mph N5.6 kmh N 6.9 mph11.1 kmh 30.01 in1016.3 mb - 0.00 in0.0 mm 0.00 in0.0 mm
07:10 AM 59.5°F15.3°C 31.1°F-0.5°C 34% 4.6 mph NNE7.4 kmh NNE 5.8 mph9.3 kmh 30.01 in1016.3 mb - 0.00 in0.0 mm 0.00 in0.0 mm
07:00 AM 59.0°F15.0°C 30.7°F-0.7°C 34% 5.8 mph N9.3 kmh N 8.1 mph13.0 kmh 30.01 in1016.3 mb - 0.00 in0.0 mm 0.00 in0.0 mm
06:50 AM 58.7°F14.8°C 30.3°F-0.9°C 34% 6.9 mph NNE11.1 kmh NNE 9.2 mph14.8 kmh 30.00 in1015.9 mb - 0.00 in0.0 mm 0.00 in0.0 mm
06:40 AM 58.3°F14.6°C 30.1°F-1.1°C 34% 5.8 mph NNE9.3 kmh NNE 8.1 mph13.0 kmh 30.00 in1015.9 mb - 0.00 in0.0 mm 0.00 in0.0 mm
06:30 AM 58.3°F14.6°C 30.1°F-1.1°C 34% 4.6 mph NNE7.4 kmh NNE 5.8 mph9.3 kmh 30.00 in1015.9 mb - 0.00 in0.0 mm 0.00 in0.0 mm
06:20 AM 58.6°F14.8°C 30.3°F-0.9°C 34% 4.6 mph N7.4 kmh N 6.9 mph11.1 kmh 29.99 in1015.6 mb - 0.00 in0.0 mm 0.00 in0.0 mm
06:10 AM 59.2°F15.1°C 30.1°F-1.1°C 33% 4.6 mph NNE7.4 kmh NNE 8.1 mph13.0 kmh 29.99 in1015.6 mb - 0.00 in0.0 mm 0.00 in0.0 mm
06:00 AM 59.7°F15.4°C 29.8°F-1.2°C 32% 4.6 mph NNE7.4 kmh NNE 8.1 mph13.0 kmh 29.99 in1015.6 mb - 0.00 in0.0 mm 0.00 in0.0 mm
05:50 AM 60.2°F15.7°C 29.4°F-1.4°C 31% 2.3 mph NNE3.7 kmh NNE 3.5 mph5.6 kmh 29.99 in1015.6 mb - 0.00 in0.0 mm 0.00 in0.0 mm
05:40 AM 59.8°F15.4°C 29.8°F-1.2°C 32% 2.3 mph N3.7 kmh N 3.5 mph5.6 kmh 30.00 in1015.9 mb - 0.00 in0.0 mm 0.00 in0.0 mm
05:30 AM 60.4°F15.8°C 28.8°F-1.8°C 30% 3.5 mph NNE5.6 kmh NNE 3.5 mph5.6 kmh 30.00 in1015.9 mb - 0.00 in0.0 mm 0.00 in0.0 mm
05:20 AM 60.9°F16.1°C 28.4°F-2.0°C 29% 3.5 mph NNE5.6 kmh NNE 5.8 mph9.3 kmh 30.01 in1016.3 mb - 0.00 in0.0 mm 0.00 in0.0 mm
05:10 AM 60.7°F15.9°C 29.0°F-1.7°C 30% 5.8 mph N9.3 kmh N 8.1 mph13.0 kmh 30.00 in1015.9 mb - 0.00 in0.0 mm 0.00 in0.0 mm
05:00 AM 60.3°F15.7°C 29.5°F-1.4°C 31% 9.2 mph NNW14.8 kmh NNW 9.2 mph14.8 kmh 30.00 in1015.9 mb - 0.00 in0.0 mm 0.00 in0.0 mm
04:50 AM 60.3°F15.7°C 29.5°F-1.4°C 31% 8.1 mph N13.0 kmh N 10.4 mph16.7 kmh 30.00 in1015.9 mb - 0.00 in0.0 mm 0.00 in0.0 mm
04:40 AM 60.7°F15.9°C 29.0°F-1.7°C 30% 9.2 mph NE14.8 kmh NE 11.5 mph18.5 kmh 29.99 in1015.6 mb - 0.00 in0.0 mm 0.00 in0.0 mm
04:30 AM 61.0°F16.1°C 29.3°F-1.5°C 30% 8.1 mph NNE13.0 kmh NNE 12.7 mph20.4 kmh 29.99 in1015.6 mb - 0.00 in0.0 mm 0.00 in0.0 mm
04:20 AM 61.4°F16.3°C 28.8°F-1.8°C 29% 4.6 mph N7.4 kmh N 6.9 mph11.1 kmh 29.99 in1015.6 mb - 0.00 in0.0 mm 0.00 in0.0 mm
04:10 AM 61.5°F16.4°C 28.9°F-1.7°C 29% 4.6 mph NNE7.4 kmh NNE 5.8 mph9.3 kmh 29.99 in1015.6 mb - 0.00 in0.0 mm 0.00 in0.0 mm
04:00 AM 61.5°F16.4°C 28.9°F-1.7°C 29% 6.9 mph NNE11.1 kmh NNE 5.8 mph9.3 kmh 30.00 in1015.9 mb - 0.00 in0.0 mm 0.00 in0.0 mm
03:50 AM 60.6°F15.9°C 29.0°F-1.7°C 30% 10.4 mph NNE16.7 kmh NNE 11.5 mph18.5 kmh 30.00 in1015.9 mb - 0.00 in0.0 mm 0.00 in0.0 mm
03:40 AM 59.5°F15.3°C 28.8°F-1.8°C 31% 4.6 mph N7.4 kmh N 5.8 mph9.3 kmh 30.00 in1015.9 mb - 0.00 in0.0 mm 0.00 in0.0 mm
03:30 AM 59.5°F15.3°C 29.6°F-1.3°C 32% 3.5 mph N5.6 kmh N 2.3 mph3.7 kmh 30.00 in1015.9 mb - 0.00 in0.0 mm 0.00 in0.0 mm
03:20 AM 59.9°F15.5°C 29.1°F-1.6°C 31% 6.9 mph N11.1 kmh N 6.9 mph11.1 kmh 30.01 in1016.3 mb - 0.00 in0.0 mm 0.00 in0.0 mm
03:10 AM 59.4°F15.2°C 29.5°F-1.4°C 32% 5.8 mph NNE9.3 kmh NNE 4.6 mph7.4 kmh 30.01 in1016.3 mb - 0.00 in0.0 mm 0.00 in0.0 mm
03:00 AM 58.9°F14.9°C 29.9°F-1.2°C 33% 5.8 mph NE9.3 kmh NE 5.8 mph9.3 kmh 30.01 in1016.3 mb - 0.00 in0.0 mm 0.00 in0.0 mm
02:50 AM 59.0°F15.0°C 29.9°F-1.2°C 33% 4.6 mph NNE7.4 kmh NNE 2.3 mph3.7 kmh 30.01 in1016.3 mb - 0.00 in0.0 mm 0.00 in0.0 mm
02:40 AM 59.4°F15.2°C 30.3°F-0.9°C 33% 5.8 mph NE9.3 kmh NE 5.8 mph9.3 kmh 30.02 in1016.6 mb - 0.00 in0.0 mm 0.00 in0.0 mm
02:30 AM 59.5°F15.3°C 30.4°F-0.9°C 33% 5.8 mph NNE9.3 kmh NNE 9.2 mph14.8 kmh 30.02 in1016.6 mb - 0.00 in0.0 mm 0.00 in0.0 mm
02:20 AM 59.8°F15.4°C 30.6°F-0.8°C 33% 4.6 mph N7.4 kmh N 4.6 mph7.4 kmh 30.02 in1016.6 mb - 0.00 in0.0 mm 0.00 in0.0 mm
02:10 AM 59.9°F15.5°C 30.7°F-0.7°C 33% 6.9 mph NNE11.1 kmh NNE 8.1 mph13.0 kmh 30.02 in1016.6 mb - 0.00 in0.0 mm 0.00 in0.0 mm
02:00 AM 60.1°F15.6°C 30.9°F-0.6°C 33% 4.6 mph NNE7.4 kmh NNE 3.5 mph5.6 kmh 30.02 in1016.6 mb - 0.00 in0.0 mm 0.00 in0.0 mm
01:50 AM 60.4°F15.8°C 30.4°F-0.9°C 32% 3.5 mph N5.6 kmh N 4.6 mph7.4 kmh 30.03 in1016.9 mb - 0.00 in0.0 mm 0.00 in0.0 mm
01:30 AM 61.2°F16.2°C 30.3°F-0.9°C 31% 3.5 mph NNE5.6 kmh NNE 4.6 mph7.4 kmh 30.03 in1016.9 mb - 0.00 in0.0 mm 0.00 in0.0 mm
01:20 AM 61.4°F16.3°C 30.5°F-0.8°C 31% 3.5 mph NNE5.6 kmh NNE 3.5 mph5.6 kmh 30.04 in1017.3 mb - 0.00 in0.0 mm 0.00 in0.0 mm
01:10 AM 61.6°F16.4°C 30.7°F-0.7°C 31% 5.8 mph NNE9.3 kmh NNE 4.6 mph7.4 kmh 30.04 in1017.3 mb - 0.00 in0.0 mm 0.00 in0.0 mm
01:00 AM 62.6°F17.0°C 29.9°F-1.2°C 29% 8.1 mph NNE13.0 kmh NNE 6.9 mph11.1 kmh 30.04 in1017.3 mb - 0.00 in0.0 mm 0.00 in0.0 mm
12:50 AM 62.8°F17.1°C 30.0°F-1.1°C 29% 8.1 mph NNE13.0 kmh NNE 8.1 mph13.0 kmh 30.04 in1017.3 mb - 0.00 in0.0 mm 0.00 in0.0 mm
12:40 AM 62.6°F17.0°C 29.9°F-1.2°C 29% 4.6 mph NE7.4 kmh NE 3.5 mph5.6 kmh 30.04 in1017.3 mb - 0.00 in0.0 mm 0.00 in0.0 mm
12:30 AM 63.3°F17.4°C 29.6°F-1.3°C 28% 2.3 mph N3.7 kmh N 3.5 mph5.6 kmh 30.04 in1017.3 mb - 0.00 in0.0 mm 0.00 in0.0 mm
12:10 AM 64.3°F17.9°C 29.6°F-1.3°C 27% 5.8 mph N9.3 kmh N 10.4 mph16.7 kmh 30.05 in1017.6 mb - 0.00 in0.0 mm 0.00 in0.0 mm